Lexington, Illinois
Current Conditions -  °F | °C
As of 3:56 PM on Monday 20 Oct 2014 (Local Time) from KBMI Reporting Station
Few Clouds Few Clouds  
Wind Chill: 67°   Ceiling: Unl
Heat Index: 67°   Visibility: 10mi
Dew Point: 46°   Wind: 15mph
Humidity: 47%   Direction: 310°NW
Pressure: 29.91"   Gusts: NA
Location:  40.64°N, 88.78°W
Report Text: KBMI 202056Z 31013KT 10SM FEW050 19/08 A2991 RMK AO2 53003 T01940077 SLP127
Loading
Personal Weather Stations






























Interactive Weather Map
Tropical Storm Tracking
New forecast layout! Learn more

10-Day Weather Forecast

Advertisements
Track Severe Weather on mobile